Time;durP1;ratioP1;P1;durP2;ratioP2;P2;SDS_P1;SDS_P2;PMS_P1;PMS_P2;Temp;Humidity;BMP_temperature;BMP_pressure;BME280_temperature;BME280_humidity;BME280_pressure;Samples;Min_cycle;Max_cycle;Signal;HPM_P1;HPM_P2
2022/09/02 00:01:28;;;;;;;9.30;6.40;;;;;;;;;;4962573;28;20216;-53
2022/09/02 00:03:58;;;;;;;12.57;5.23;;;;;;;;;;5009817;28;20478;-54
2022/09/02 00:06:24;;;;;;;7.97;5.40;;;;;;;;;;4994827;28;20496;-58
2022/09/02 00:08:50;;;;;;;9.50;4.43;;;;;;;;;;5017131;28;20432;-53
2022/09/02 00:11:17;;;;;;;5.13;4.63;;;;;;;;;;5002602;28;20451;-54
2022/09/02 00:13:43;;;;;;;4.83;4.17;;;;;;;;;;4998002;28;21417;-55
2022/09/02 00:16:10;;;;;;;5.07;4.60;;;;;;;;;;5005700;28;20435;-54
2022/09/02 00:18:36;;;;;;;5.67;5.07;;;;;;;;;;5005050;28;20937;-54
2022/09/02 00:21:02;;;;;;;7.83;4.03;;;;;;;;;;5001114;28;20609;-53
2022/09/02 00:23:27;;;;;;;4.80;3.97;;;;;;;;;;5014201;28;20440;-54
2022/09/02 00:25:53;;;;;;;4.33;3.93;;;;;;;;;;5009205;28;20448;-53
2022/09/02 00:28:19;;;;;;;5.50;3.80;;;;;;;;;;5013057;28;20842;-54
2022/09/02 00:30:45;;;;;;;4.53;4.13;;;;;;;;;;5007473;28;20486;-55
2022/09/02 00:33:11;;;;;;;4.33;4.03;;;;;;;;;;5007800;28;20853;-55
2022/09/02 00:35:37;;;;;;;6.60;4.23;;;;;;;;;;4980764;28;20483;-53
2022/09/02 00:38:04;;;;;;;4.53;3.60;;;;;;;;;;5017601;28;20443;-53
2022/09/02 00:40:30;;;;;;;7.23;4.67;;;;;;;;;;4991023;28;20486;-55
2022/09/02 00:42:56;;;;;;;5.20;4.80;;;;;;;;;;5026890;28;20949;-54
2022/09/02 00:45:22;;;;;;;4.70;4.23;;;;;;;;;;5004603;28;20746;-53
2022/09/02 00:47:51;;;;;;;8.00;4.43;;;;;;;;;;5014871;28;20479;-53
2022/09/02 00:50:18;;;;;;;5.93;5.43;;;;;;;;;;4997903;28;20523;-53
2022/09/02 00:52:48;;;;;;;5.37;4.80;;;;;;;;;;5014632;28;20436;-53
2022/09/02 00:55:15;;;;;;;4.10;3.70;;;;;;;;;;5012365;28;20431;-54
2022/09/02 00:57:41;;;;;;;5.87;4.00;;;;;;;;;;5008462;28;20437;-54
2022/09/02 01:00:09;;;;;;;3.77;3.47;;;;;;;;;;4994210;28;20474;-53
2022/09/02 01:02:36;;;;;;;5.10;4.60;;;;;;;;;;5027899;28;20511;-54
2022/09/02 01:05:03;;;;;;;4.63;3.90;;;;;;;;;;4968364;28;20525;-53
2022/09/02 01:07:32;;;;;;;4.53;4.13;;;;;;;;;;5006606;28;20525;-53
2022/09/02 01:09:58;;;;;;;5.17;4.67;;;;;;;;;;4987177;28;21063;-53
2022/09/02 01:12:26;;;;;;;8.43;5.60;;;;;;;;;;5014804;28;20494;-53
2022/09/02 01:14:52;;;;;;;3.93;3.53;;;;;;;;;;5006583;28;20439;-52
2022/09/02 01:17:19;;;;;;;4.50;4.10;;;;;;;;;;5009483;28;20424;-52
2022/09/02 01:19:46;;;;;;;5.47;4.50;;;;;;;;;;4987761;28;20460;-52
2022/09/02 01:22:16;;;;;;;5.20;3.90;;;;;;;;;;5015294;28;20466;-52
2022/09/02 01:24:42;;;;;;;10.40;4.50;;;;;;;;;;5001049;28;20430;-52
2022/09/02 01:27:08;;;;;;;4.63;4.23;;;;;;;;;;5008651;28;20436;-54
2022/09/02 01:29:33;;;;;;;4.50;4.10;;;;;;;;;;4989706;28;20444;-55
2022/09/02 01:32:01;;;;;;;7.30;4.53;;;;;;;;;;5019857;28;20192;-53
2022/09/02 01:34:27;;;;;;;4.70;4.30;;;;;;;;;;4967399;28;20456;-53
2022/09/02 01:36:53;;;;;;;4.90;4.50;;;;;;;;;;5009519;28;20444;-54
2022/09/02 01:39:19;;;;;;;5.50;4.13;;;;;;;;;;5004833;28;20459;-53
2022/09/02 01:41:45;;;;;;;4.83;4.33;;;;;;;;;;5011385;28;20487;-53
2022/09/02 01:44:14;;;;;;;5.13;4.30;;;;;;;;;;5005718;28;20231;-53
2022/09/02 01:46:40;;;;;;;7.20;4.50;;;;;;;;;;5004779;28;20455;-52
2022/09/02 01:49:06;;;;;;;5.30;4.80;;;;;;;;;;4989773;28;20470;-53
2022/09/02 01:51:32;;;;;;;4.33;3.93;;;;;;;;;;5013200;28;20177;-52
2022/09/02 01:53:58;;;;;;;8.23;6.53;;;;;;;;;;4997393;28;23088;-54
2022/09/02 01:56:24;;;;;;;4.97;4.57;;;;;;;;;;5012358;28;20646;-53
2022/09/02 01:58:50;;;;;;;5.00;4.53;;;;;;;;;;4999304;28;23409;-53
2022/09/02 02:01:16;;;;;;;7.57;4.77;;;;;;;;;;5011302;28;20701;-54
2022/09/02 02:03:42;;;;;;;6.07;4.90;;;;;;;;;;5013344;28;20474;-54
2022/09/02 02:06:10;;;;;;;4.73;4.30;;;;;;;;;;5012893;28;20432;-54
2022/09/02 02:08:36;;;;;;;5.00;4.50;;;;;;;;;;4997906;28;20432;-53
2022/09/02 02:11:02;;;;;;;4.97;4.47;;;;;;;;;;5000696;28;20436;-53
2022/09/02 02:13:28;;;;;;;5.90;4.77;;;;;;;;;;4992605;28;20502;-54
2022/09/02 02:15:53;;;;;;;5.20;4.70;;;;;;;;;;5016293;28;20575;-55
2022/09/02 02:18:19;;;;;;;6.60;3.80;;;;;;;;;;4998246;28;20439;-53
2022/09/02 02:20:45;;;;;;;5.07;4.57;;;;;;;;;;5014471;28;20891;-53
2022/09/02 02:23:11;;;;;;;5.23;4.30;;;;;;;;;;5010424;28;20744;-52
2022/09/02 02:25:38;;;;;;;4.60;4.20;;;;;;;;;;5013091;28;20185;-56
2022/09/02 02:28:03;;;;;;;4.30;3.87;;;;;;;;;;5003985;28;20447;-54
2022/09/02 02:30:29;;;;;;;6.17;3.80;;;;;;;;;;5001981;28;20443;-53
2022/09/02 02:32:55;;;;;;;7.20;4.50;;;;;;;;;;5025264;28;20515;-53
2022/09/02 02:35:21;;;;;;;5.63;5.10;;;;;;;;;;5005347;28;20447;-53
2022/09/02 02:37:48;;;;;;;7.67;5.67;;;;;;;;;;5015438;28;20185;-54
2022/09/02 02:40:15;;;;;;;5.63;5.13;;;;;;;;;;5006505;28;20474;-53
2022/09/02 02:42:41;;;;;;;4.90;3.57;;;;;;;;;;5011577;28;20424;-53
2022/09/02 02:45:08;;;;;;;4.70;3.97;;;;;;;;;;4966776;28;20448;-51
2022/09/02 02:47:34;;;;;;;4.50;4.10;;;;;;;;;;5008709;28;20512;-53
2022/09/02 02:50:00;;;;;;;5.13;4.63;;;;;;;;;;4992070;28;20473;-54
2022/09/02 02:52:26;;;;;;;5.00;4.10;;;;;;;;;;5013561;28;20427;-54
2022/09/02 02:54:52;;;;;;;5.27;4.07;;;;;;;;;;5004043;28;20188;-54
2022/09/02 02:57:18;;;;;;;4.10;3.77;;;;;;;;;;5013103;28;20447;-54
2022/09/02 02:59:44;;;;;;;4.40;4.10;;;;;;;;;;5004833;28;20994;-55
2022/09/02 03:02:10;;;;;;;5.87;5.27;;;;;;;;;;5014003;28;20487;-55
2022/09/02 03:04:36;;;;;;;4.77;4.30;;;;;;;;;;5010951;28;20436;-55
2022/09/02 03:07:02;;;;;;;4.70;4.30;;;;;;;;;;5013361;28;20440;-54
2022/09/02 03:09:30;;;;;;;5.37;4.87;;;;;;;;;;4997000;28;20441;-54
2022/09/02 03:11:56;;;;;;;5.80;4.23;;;;;;;;;;5013797;28;20490;-54
2022/09/02 03:14:23;;;;;;;7.33;3.80;;;;;;;;;;4964612;28;20432;-53
2022/09/02 03:16:49;;;;;;;5.80;5.20;;;;;;;;;;5012191;28;20476;-53
2022/09/02 03:19:15;;;;;;;7.07;4.90;;;;;;;;;;4990488;28;20530;-53
2022/09/02 03:21:41;;;;;;;5.53;5.00;;;;;;;;;;5015890;28;20268;-53
2022/09/02 03:24:08;;;;;;;6.17;5.00;;;;;;;;;;5007133;28;20520;-53
2022/09/02 03:26:34;;;;;;;6.10;4.30;;;;;;;;;;5016411;28;20436;-53
2022/09/02 03:29:00;;;;;;;5.67;4.10;;;;;;;;;;4997661;28;20926;-54
2022/09/02 03:31:27;;;;;;;4.27;3.87;;;;;;;;;;5008029;28;20475;-52
2022/09/02 03:33:53;;;;;;;4.33;3.80;;;;;;;;;;4991983;28;20211;-55
2022/09/02 03:36:29;;;;;;;5.00;4.50;;;;;;;;;;5017828;28;20427;-52
2022/09/02 03:38:55;;;;;;;4.10;3.70;;;;;;;;;;4984786;28;20952;-55
2022/09/02 03:41:21;;;;;;;4.60;3.70;;;;;;;;;;5011220;28;21043;-54
2022/09/02 03:43:47;;;;;;;4.40;4.00;;;;;;;;;;5006424;28;20427;-53
2022/09/02 03:46:13;;;;;;;5.53;4.50;;;;;;;;;;5008916;28;20471;-52
2022/09/02 03:48:39;;;;;;;3.83;3.53;;;;;;;;;;4982000;28;20523;-53
2022/09/02 03:51:05;;;;;;;4.17;3.80;;;;;;;;;;5011156;28;20479;-54
2022/09/02 03:53:31;;;;;;;4.20;3.53;;;;;;;;;;5004907;28;20433;-55
2022/09/02 03:55:58;;;;;;;6.13;4.03;;;;;;;;;;5011024;28;20432;-53
2022/09/02 03:58:24;;;;;;;4.30;3.90;;;;;;;;;;5000721;28;20515;-53
2022/09/02 04:00:51;;;;;;;5.67;3.87;;;;;;;;;;5009918;28;20614;-52
2022/09/02 04:03:17;;;;;;;5.20;4.70;;;;;;;;;;5008534;28;20193;-53
2022/09/02 04:05:45;;;;;;;3.67;3.37;;;;;;;;;;5009071;28;20460;-53
2022/09/02 04:08:11;;;;;;;3.50;3.20;;;;;;;;;;4999185;28;20570;-54
2022/09/02 04:10:37;;;;;;;5.17;4.03;;;;;;;;;;5001730;28;20528;-53
2022/09/02 04:13:03;;;;;;;4.07;3.67;;;;;;;;;;5005021;28;20424;-54
2022/09/02 04:15:29;;;;;;;4.30;3.90;;;;;;;;;;5012016;28;20451;-53
2022/09/02 04:17:55;;;;;;;3.87;3.50;;;;;;;;;;5010772;28;20951;-54
2022/09/02 04:20:21;;;;;;;4.17;3.77;;;;;;;;;;5011156;28;20488;-53
2022/09/02 04:22:48;;;;;;;4.57;3.70;;;;;;;;;;5001832;28;20454;-53
2022/09/02 04:25:13;;;;;;;4.27;3.87;;;;;;;;;;4972257;28;20447;-53
2022/09/02 04:27:39;;;;;;;3.93;3.53;;;;;;;;;;5006272;28;20949;-54
2022/09/02 04:30:06;;;;;;;6.00;3.97;;;;;;;;;;4993904;28;20188;-55
2022/09/02 04:32:32;;;;;;;3.47;3.00;;;;;;;;;;5012830;28;20435;-54
2022/09/02 04:34:58;;;;;;;3.83;3.53;;;;;;;;;;5003032;28;20424;-54
2022/09/02 04:37:24;;;;;;;5.10;3.93;;;;;;;;;;5009844;28;20477;-55
2022/09/02 04:39:51;;;;;;;4.43;4.00;;;;;;;;;;4998706;28;20464;-54
2022/09/02 04:42:17;;;;;;;4.93;3.60;;;;;;;;;;5011050;28;20850;-55
2022/09/02 04:44:45;;;;;;;3.33;3.03;;;;;;;;;;4992696;28;20432;-55
2022/09/02 04:47:11;;;;;;;4.40;3.03;;;;;;;;;;5019139;28;20431;-55
2022/09/02 04:49:37;;;;;;;4.30;3.80;;;;;;;;;;4988098;28;20432;-55
2022/09/02 04:52:03;;;;;;;4.30;3.90;;;;;;;;;;5015517;28;20610;-55
2022/09/02 04:54:29;;;;;;;4.40;4.00;;;;;;;;;;5006348;28;20453;-55
2022/09/02 04:56:55;;;;;;;4.13;3.73;;;;;;;;;;5013464;28;20467;-55
2022/09/02 04:59:21;;;;;;;4.40;3.97;;;;;;;;;;4964167;28;20462;-55
2022/09/02 05:01:48;;;;;;;4.27;3.97;;;;;;;;;;5006988;28;20594;-55
2022/09/02 05:04:14;;;;;;;4.03;3.63;;;;;;;;;;5001575;28;20805;-55
2022/09/02 05:06:40;;;;;;;3.87;3.50;;;;;;;;;;5005069;28;20445;-55
2022/09/02 05:09:07;;;;;;;4.27;3.60;;;;;;;;;;5003436;28;20181;-55
2022/09/02 05:11:33;;;;;;;3.90;3.53;;;;;;;;;;5014158;28;20490;-55
2022/09/02 05:14:00;;;;;;;5.77;4.33;;;;;;;;;;4984411;28;20439;-55
2022/09/02 05:16:28;;;;;;;4.40;4.00;;;;;;;;;;5012813;28;20432;-55
2022/09/02 05:18:54;;;;;;;3.70;3.30;;;;;;;;;;4987453;28;20451;-55
2022/09/02 05:21:21;;;;;;;4.30;3.90;;;;;;;;;;5013175;28;20836;-54
2022/09/02 05:23:47;;;;;;;8.60;3.80;;;;;;;;;;5003892;28;20440;-55
2022/09/02 05:26:13;;;;;;;5.70;3.77;;;;;;;;;;5001411;28;20463;-55
2022/09/02 05:28:40;;;;;;;9.03;4.40;;;;;;;;;;4966952;28;20452;-54
2022/09/02 05:31:07;;;;;;;5.83;4.93;;;;;;;;;;5012072;28;20440;-54
2022/09/02 05:33:36;;;;;;;5.17;4.30;;;;;;;;;;5008518;28;20483;-55
2022/09/02 05:36:02;;;;;;;6.23;5.53;;;;;;;;;;5015160;28;20444;-55
2022/09/02 05:38:28;;;;;;;5.10;4.60;;;;;;;;;;5007779;28;20458;-54
2022/09/02 05:40:54;;;;;;;8.50;4.30;;;;;;;;;;5005097;28;20468;-54
2022/09/02 05:43:21;;;;;;;6.73;5.80;;;;;;;;;;4991276;28;23237;-54
2022/09/02 05:45:47;;;;;;;5.17;4.77;;;;;;;;;;5012220;28;20519;-54
2022/09/02 05:50:58;;;;;;;5.60;4.80;;;;;;;;;;5021611;28;20497;-54
2022/09/02 05:53:25;;;;;;;6.07;4.73;;;;;;;;;;5009267;28;20937;-55
2022/09/02 05:55:51;;;;;;;6.17;5.07;;;;;;;;;;5001736;28;20432;-54
2022/09/02 05:58:18;;;;;;;8.73;4.07;;;;;;;;;;4989449;28;20448;-54
2022/09/02 06:00:44;;;;;;;5.20;4.23;;;;;;;;;;5012061;28;20586;-55
2022/09/02 06:03:13;;;;;;;5.00;4.50;;;;;;;;;;4990908;28;20447;-55
2022/09/02 06:05:41;;;;;;;5.70;5.10;;;;;;;;;;4992983;28;20965;-55
2022/09/02 06:08:07;;;;;;;5.40;4.77;;;;;;;;;;5013397;28;20434;-55
2022/09/02 06:10:33;;;;;;;7.03;4.30;;;;;;;;;;5023204;28;20441;-55
2022/09/02 06:12:59;;;;;;;5.30;4.07;;;;;;;;;;5003840;28;20436;-55
2022/09/02 06:15:27;;;;;;;4.60;3.70;;;;;;;;;;4996392;28;20188;-53
2022/09/02 06:17:53;;;;;;;5.17;4.67;;;;;;;;;;5008693;28;20466;-55
2022/09/02 06:20:19;;;;;;;4.57;4.17;;;;;;;;;;5011737;28;20495;-55
2022/09/02 06:22:44;;;;;;;4.27;3.87;;;;;;;;;;5016281;28;20941;-55
2022/09/02 06:25:10;;;;;;;4.97;3.73;;;;;;;;;;5010376;28;20511;-55
2022/09/02 06:27:37;;;;;;;4.77;4.37;;;;;;;;;;5015959;28;20607;-55
2022/09/02 06:30:03;;;;;;;6.00;3.90;;;;;;;;;;5011086;28;20190;-54
2022/09/02 06:32:29;;;;;;;5.10;4.17;;;;;;;;;;5015800;28;20968;-55
2022/09/02 06:34:55;;;;;;;4.60;4.20;;;;;;;;;;4963564;28;20457;-54
2022/09/02 06:37:21;;;;;;;4.97;4.30;;;;;;;;;;5014447;28;20184;-54
2022/09/02 06:39:47;;;;;;;4.40;4.00;;;;;;;;;;4999793;28;20197;-54
2022/09/02 06:42:13;;;;;;;5.00;4.00;;;;;;;;;;5019965;28;20479;-54
2022/09/02 06:44:39;;;;;;;5.80;4.40;;;;;;;;;;5006540;28;20442;-54
2022/09/02 06:47:05;;;;;;;4.03;3.70;;;;;;;;;;5008544;28;20474;-57
2022/09/02 06:49:31;;;;;;;5.33;4.00;;;;;;;;;;4992855;28;20436;-55
2022/09/02 06:51:58;;;;;;;9.17;5.00;;;;;;;;;;5022555;28;20432;-54
2022/09/02 06:54:24;;;;;;;8.13;4.23;;;;;;;;;;5008753;28;20178;-54
2022/09/02 06:56:50;;;;;;;10.10;4.17;;;;;;;;;;5022136;28;20514;-54
2022/09/02 06:59:17;;;;;;;6.90;3.70;;;;;;;;;;4998857;28;20459;-54
2022/09/02 07:01:43;;;;;;;5.77;4.00;;;;;;;;;;5019004;28;20480;-54
2022/09/02 07:06:54;;;;;;;5.20;3.67;;;;;;;;;;5009461;28;20430;-55
2022/09/02 07:09:21;;;;;;;3.60;3.30;;;;;;;;;;5000617;28;20444;-54
2022/09/02 07:11:47;;;;;;;5.57;3.47;;;;;;;;;;5013440;28;20444;-53
2022/09/02 07:14:14;;;;;;;4.67;3.77;;;;;;;;;;5007326;28;20463;-54
2022/09/02 07:16:42;;;;;;;4.07;3.60;;;;;;;;;;5025908;28;21074;-54
2022/09/02 07:19:08;;;;;;;4.37;3.97;;;;;;;;;;4984169;28;20446;-54
2022/09/02 07:21:35;;;;;;;6.53;3.60;;;;;;;;;;5015792;28;20475;-54
2022/09/02 07:24:01;;;;;;;4.13;3.73;;;;;;;;;;5005420;28;20438;-54
2022/09/02 07:26:27;;;;;;;6.83;3.30;;;;;;;;;;5008012;28;21955;-54
2022/09/02 07:28:53;;;;;;;3.57;3.13;;;;;;;;;;4989693;28;20444;-54
2022/09/02 07:31:19;;;;;;;4.87;3.23;;;;;;;;;;5013152;28;21001;-53
2022/09/02 07:33:45;;;;;;;3.53;3.20;;;;;;;;;;5007746;28;20495;-55
2022/09/02 07:36:12;;;;;;;3.63;3.30;;;;;;;;;;5010645;28;20247;-53
2022/09/02 07:38:39;;;;;;;5.37;3.67;;;;;;;;;;4966611;28;24929;-53
2022/09/02 07:41:05;;;;;;;4.37;3.27;;;;;;;;;;5011344;28;20484;-54
2022/09/02 07:43:32;;;;;;;6.30;2.93;;;;;;;;;;5006909;28;20467;-55
2022/09/02 07:45:59;;;;;;;4.30;3.83;;;;;;;;;;5006228;28;20801;-54
2022/09/02 07:48:25;;;;;;;3.57;3.23;;;;;;;;;;4987992;28;20558;-54
2022/09/02 07:50:51;;;;;;;4.00;3.10;;;;;;;;;;5010993;28;20440;-55
2022/09/02 07:53:17;;;;;;;5.97;3.90;;;;;;;;;;5006504;28;20169;-55
2022/09/02 07:55:43;;;;;;;3.40;3.10;;;;;;;;;;5003357;28;20442;-55
2022/09/02 07:58:09;;;;;;;3.83;2.77;;;;;;;;;;5001445;28;20444;-55
2022/09/02 08:00:35;;;;;;;4.53;2.80;;;;;;;;;;5008738;28;20558;-54
2022/09/02 08:03:01;;;;;;;2.80;2.60;;;;;;;;;;5003967;28;20488;-54
2022/09/02 08:05:27;;;;;;;3.60;2.77;;;;;;;;;;5009839;28;20456;-56
2022/09/02 08:07:53;;;;;;;3.50;2.67;;;;;;;;;;5013349;28;20450;-56
2022/09/02 08:10:20;;;;;;;3.10;2.40;;;;;;;;;;5005897;28;20439;-55
2022/09/02 08:12:46;;;;;;;4.57;2.90;;;;;;;;;;5015784;28;20424;-55
2022/09/02 08:15:12;;;;;;;3.00;2.27;;;;;;;;;;4970485;28;20436;-55
2022/09/02 08:17:39;;;;;;;3.40;2.37;;;;;;;;;;5006295;28;20429;-55
2022/09/02 08:20:07;;;;;;;2.87;2.10;;;;;;;;;;4981298;28;20446;-56
2022/09/02 08:22:34;;;;;;;7.53;2.70;;;;;;;;;;5015300;28;20594;-55
2022/09/02 08:25:00;;;;;;;2.40;2.20;;;;;;;;;;5006330;28;20861;-55
2022/09/02 08:27:26;;;;;;;3.80;2.60;;;;;;;;;;5011690;28;20531;-55
2022/09/02 08:29:52;;;;;;;2.70;2.03;;;;;;;;;;4992490;28;20269;-55
2022/09/02 08:32:18;;;;;;;3.47;2.67;;;;;;;;;;5017390;28;20436;-55
2022/09/02 08:34:44;;;;;;;4.40;2.40;;;;;;;;;;4995661;28;20465;-55
2022/09/02 08:37:10;;;;;;;5.43;2.50;;;;;;;;;;5016883;28;20419;-55
2022/09/02 08:39:37;;;;;;;3.17;2.20;;;;;;;;;;5001750;28;21525;-55
2022/09/02 08:42:11;;;;;;;5.30;2.40;;;;;;;;;;5011187;28;20570;-55
2022/09/02 08:44:38;;;;;;;2.30;2.10;;;;;;;;;;4968391;28;21013;-55
2022/09/02 08:47:05;;;;;;;4.60;2.27;;;;;;;;;;5010146;28;20428;-55
2022/09/02 08:49:33;;;;;;;3.90;2.17;;;;;;;;;;4985269;28;20983;-54
2022/09/02 08:52:00;;;;;;;2.30;2.07;;;;;;;;;;5017470;28;20577;-54
2022/09/02 08:54:43;;;;;;;2.57;2.37;;;;;;;;;;4989928;28;20496;-56
2022/09/02 08:57:09;;;;;;;2.77;2.37;;;;;;;;;;5008474;28;20442;-54
2022/09/02 08:59:36;;;;;;;4.47;2.67;;;;;;;;;;5001265;28;20990;-55
2022/09/02 09:02:21;;;;;;;5.40;2.80;;;;;;;;;;5012263;28;20472;-54
2022/09/02 09:04:56;;;;;;;2.43;2.07;;;;;;;;;;5005740;28;20489;-54
2022/09/02 09:07:32;;;;;;;2.60;2.30;;;;;;;;;;5008600;28;20447;-54
2022/09/02 09:09:59;;;;;;;5.20;2.73;;;;;;;;;;4999164;28;20447;-54
2022/09/02 09:12:46;;;;;;;4.20;2.40;;;;;;;;;;5012032;28;20431;-54
2022/09/02 09:15:35;;;;;;;2.37;2.17;;;;;;;;;;5014877;28;20442;-55
2022/09/02 09:18:02;;;;;;;5.97;2.20;;;;;;;;;;4999818;28;20432;-55
2022/09/02 09:20:34;;;;;;;2.97;2.30;;;;;;;;;;4963372;28;20839;-55
2022/09/02 09:23:01;;;;;;;2.80;2.43;;;;;;;;;;5009017;28;20452;-54
2022/09/02 09:25:30;;;;;;;2.60;2.40;;;;;;;;;;5008634;28;20535;-54
2022/09/02 09:27:56;;;;;;;3.00;2.70;;;;;;;;;;5008165;28;20774;-55
2022/09/02 09:30:23;;;;;;;5.37;2.23;;;;;;;;;;4992541;28;20435;-55
2022/09/02 09:32:56;;;;;;;2.30;2.10;;;;;;;;;;5014772;28;20515;-54
2022/09/02 09:35:22;;;;;;;2.63;2.20;;;;;;;;;;5000568;28;20433;-54
2022/09/02 09:37:49;;;;;;;4.40;2.10;;;;;;;;;;5015031;28;20448;-54
2022/09/02 09:40:17;;;;;;;5.10;2.53;;;;;;;;;;5004010;28;20443;-54
2022/09/02 09:42:43;;;;;;;2.37;2.17;;;;;;;;;;5009212;28;21185;-55
2022/09/02 09:45:18;;;;;;;2.50;2.30;;;;;;;;;;5019926;28;20459;-54
2022/09/02 09:47:44;;;;;;;2.03;1.80;;;;;;;;;;5003998;28;20185;-54
2022/09/02 09:50:11;;;;;;;2.40;2.00;;;;;;;;;;4966084;28;20996;-54
2022/09/02 09:52:37;;;;;;;4.13;2.03;;;;;;;;;;5001171;28;20432;-54
2022/09/02 09:55:15;;;;;;;2.30;2.10;;;;;;;;;;4999707;28;20428;-54
2022/09/02 09:57:41;;;;;;;1.87;1.70;;;;;;;;;;5006509;28;20446;-55
2022/09/02 10:00:16;;;;;;;3.70;2.00;;;;;;;;;;4984912;28;21923;-54
2022/09/02 10:02:46;;;;;;;3.50;2.63;;;;;;;;;;5011882;28;20451;-54
2022/09/02 10:05:24;;;;;;;2.50;2.00;;;;;;;;;;5002973;28;20456;-54
2022/09/02 10:07:53;;;;;;;3.50;2.30;;;;;;;;;;5011194;28;20447;-55
2022/09/02 10:10:20;;;;;;;2.13;1.90;;;;;;;;;;5005626;28;20426;-54
2022/09/02 10:12:47;;;;;;;2.27;1.97;;;;;;;;;;5010269;28;20486;-56
2022/09/02 10:15:13;;;;;;;3.93;2.30;;;;;;;;;;5003894;28;20444;-59
2022/09/02 10:17:47;;;;;;;4.60;2.10;;;;;;;;;;5000862;28;20520;-56
2022/09/02 10:20:38;;;;;;;2.03;1.60;;;;;;;;;;4962648;28;20533;-55
2022/09/02 10:23:26;;;;;;;2.53;2.00;;;;;;;;;;5014575;28;20494;-55
2022/09/02 10:25:55;;;;;;;2.60;1.80;;;;;;;;;;4990873;28;20463;-53
2022/09/02 10:28:30;;;;;;;2.27;1.67;;;;;;;;;;5012523;28;20428;-53
2022/09/02 10:31:08;;;;;;;1.90;1.70;;;;;;;;;;5004636;28;20428;-55
2022/09/02 10:33:36;;;;;;;3.10;2.00;;;;;;;;;;5013449;28;20455;-55
2022/09/02 10:36:08;;;;;;;2.57;1.93;;;;;;;;;;5006977;28;20431;-55
2022/09/02 10:38:38;;;;;;;2.13;1.90;;;;;;;;;;5009536;28;20487;-55
2022/09/02 10:41:13;;;;;;;2.97;1.87;;;;;;;;;;4995454;28;20522;-55
2022/09/02 10:43:39;;;;;;;3.30;2.00;;;;;;;;;;5011275;28;20941;-55
2022/09/02 10:46:06;;;;;;;2.40;2.07;;;;;;;;;;5000331;28;20435;-55
2022/09/02 10:48:41;;;;;;;2.00;1.50;;;;;;;;;;5011749;28;20647;-54
2022/09/02 10:51:19;;;;;;;3.10;1.90;;;;;;;;;;4984049;28;20551;-54
2022/09/02 10:54:09;;;;;;;3.00;1.70;;;;;;;;;;5012500;28;20428;-54
2022/09/02 10:56:40;;;;;;;2.87;2.00;;;;;;;;;;4966369;28;20455;-55
2022/09/02 10:59:22;;;;;;;3.60;1.90;;;;;;;;;;5018947;28;20437;-55
2022/09/02 11:02:00;;;;;;;2.40;2.03;;;;;;;;;;4996307;28;20471;-55
2022/09/02 11:04:46;;;;;;;2.53;2.03;;;;;;;;;;5011625;28;20480;-56
2022/09/02 11:07:15;;;;;;;3.20;1.53;;;;;;;;;;5022607;28;20862;-53
2022/09/02 11:09:44;;;;;;;3.13;1.90;;;;;;;;;;5021141;28;20473;-55
2022/09/02 11:12:31;;;;;;;2.20;1.70;;;;;;;;;;5008280;28;20438;-55
2022/09/02 11:15:09;;;;;;;2.60;1.90;;;;;;;;;;5012063;28;20432;-55
2022/09/02 11:17:35;;;;;;;2.50;1.80;;;;;;;;;;5007427;28;21036;-55
2022/09/02 11:20:10;;;;;;;3.10;2.03;;;;;;;;;;4990212;28;20543;-55
2022/09/02 11:22:45;;;;;;;2.10;1.83;;;;;;;;;;5013099;28;20716;-55
2022/09/02 11:25:22;;;;;;;2.30;1.57;;;;;;;;;;4965078;28;20489;-56
2022/09/02 11:27:54;;;;;;;2.00;1.70;;;;;;;;;;5007475;28;20459;-55
2022/09/02 11:30:24;;;;;;;5.00;1.80;;;;;;;;;;5002281;28;21127;-55
2022/09/02 11:32:58;;;;;;;3.33;1.70;;;;;;;;;;5011991;28;20498;-57
2022/09/02 11:35:29;;;;;;;3.33;1.60;;;;;;;;;;5005971;28;20989;-55
2022/09/02 11:37:56;;;;;;;1.73;1.40;;;;;;;;;;5006808;28;20444;-55
2022/09/02 11:40:30;;;;;;;1.93;1.53;;;;;;;;;;5019155;28;20523;-54
2022/09/02 11:43:02;;;;;;;1.90;1.30;;;;;;;;;;5011699;28;21003;-54
2022/09/02 11:45:46;;;;;;;1.80;1.37;;;;;;;;;;4999368;28;20440;-54
2022/09/02 11:48:15;;;;;;;2.80;1.67;;;;;;;;;;5010270;28;20451;-55
2022/09/02 11:51:00;;;;;;;1.80;1.40;;;;;;;;;;5016286;28;20494;-54
2022/09/02 11:53:36;;;;;;;1.77;1.57;;;;;;;;;;5015825;28;20450;-54
2022/09/02 11:56:13;;;;;;;1.93;1.73;;;;;;;;;;4988955;28;20468;-54
2022/09/02 11:58:39;;;;;;;2.73;1.90;;;;;;;;;;5010838;28;20431;-55
2022/09/02 12:01:05;;;;;;;1.90;1.63;;;;;;;;;;4962332;28;20479;-55
2022/09/02 12:03:31;;;;;;;2.10;1.70;;;;;;;;;;5008861;28;20227;-54
2022/09/02 12:06:12;;;;;;;1.90;1.57;;;;;;;;;;4992960;28;20443;-54
2022/09/02 12:08:41;;;;;;;3.00;1.70;;;;;;;;;;5008892;28;20460;-54
2022/09/02 12:11:07;;;;;;;2.67;1.67;;;;;;;;;;4972212;28;21124;-55
2022/09/02 12:13:44;;;;;;;2.10;1.57;;;;;;;;;;4995416;28;20539;-55
2022/09/02 12:16:18;;;;;;;4.00;1.80;;;;;;;;;;5006149;28;20627;-53
2022/09/02 12:18:44;;;;;;;2.60;1.90;;;;;;;;;;5011158;28;20956;-54
2022/09/02 12:21:11;;;;;;;2.60;1.50;;;;;;;;;;5006833;28;20550;-53
2022/09/02 12:23:52;;;;;;;2.33;1.50;;;;;;;;;;5023637;28;20427;-54
2022/09/02 12:26:19;;;;;;;2.40;2.20;;;;;;;;;;4987059;28;20926;-54
2022/09/02 12:28:48;;;;;;;2.17;1.63;;;;;;;;;;5014989;28;20432;-54
2022/09/02 12:31:17;;;;;;;2.10;1.70;;;;;;;;;;4966232;28;20470;-54
2022/09/02 12:33:48;;;;;;;3.70;1.70;;;;;;;;;;5005243;28;20444;-52
2022/09/02 12:36:32;;;;;;;2.13;1.70;;;;;;;;;;5013516;28;20512;-54
2022/09/02 12:39:17;;;;;;;2.87;2.17;;;;;;;;;;5001823;28;20449;-52
2022/09/02 12:41:43;;;;;;;2.10;1.60;;;;;;;;;;4993669;28;20954;-53
2022/09/02 12:44:15;;;;;;;2.20;1.63;;;;;;;;;;5011431;28;20436;-53
2022/09/02 12:46:44;;;;;;;1.87;1.60;;;;;;;;;;4995768;28;20453;-54
2022/09/02 12:49:25;;;;;;;3.30;1.90;;;;;;;;;;5005999;28;20425;-54
2022/09/02 12:51:51;;;;;;;2.47;1.80;;;;;;;;;;5001419;28;20472;-54
2022/09/02 12:54:17;;;;;;;3.43;1.70;;;;;;;;;;5010335;28;20438;-54
2022/09/02 12:56:47;;;;;;;2.13;1.90;;;;;;;;;;4988934;28;20451;-54
2022/09/02 12:59:19;;;;;;;1.90;1.70;;;;;;;;;;5015711;28;20438;-54
2022/09/02 13:01:58;;;;;;;2.77;2.00;;;;;;;;;;4991587;28;20476;-54
2022/09/02 13:04:27;;;;;;;3.23;1.73;;;;;;;;;;5014180;28;20477;-54
2022/09/02 13:06:53;;;;;;;2.10;1.90;;;;;;;;;;4961937;28;20444;-55
2022/09/02 13:09:31;;;;;;;2.10;1.83;;;;;;;;;;5004503;28;20415;-55
2022/09/02 13:11:57;;;;;;;2.53;1.97;;;;;;;;;;4995123;28;20268;-55
2022/09/02 13:14:42;;;;;;;2.23;1.40;;;;;;;;;;5017924;28;20526;-54
2022/09/02 13:17:11;;;;;;;2.43;1.63;;;;;;;;;;5005596;28;20941;-55
2022/09/02 13:19:42;;;;;;;2.10;1.70;;;;;;;;;;5005294;28;20433;-54
2022/09/02 13:22:28;;;;;;;2.47;1.90;;;;;;;;;;5000825;28;20563;-54
2022/09/02 13:25:12;;;;;;;2.13;1.80;;;;;;;;;;5009524;28;20478;-53
2022/09/02 13:27:41;;;;;;;1.90;1.50;;;;;;;;;;5002943;28;20427;-54
2022/09/02 13:30:07;;;;;;;2.07;1.87;;;;;;;;;;5009392;28;20443;-53
2022/09/02 13:32:34;;;;;;;3.20;1.80;;;;;;;;;;4994107;28;20451;-53
2022/09/02 13:35:04;;;;;;;3.07;1.80;;;;;;;;;;5016202;28;20464;-54
2022/09/02 13:37:43;;;;;;;2.07;1.77;;;;;;;;;;4965175;28;20447;-55
2022/09/02 13:40:25;;;;;;;4.67;2.00;;;;;;;;;;5001378;28;20466;-55
2022/09/02 13:42:52;;;;;;;2.20;1.87;;;;;;;;;;5001518;28;20467;-55
2022/09/02 13:45:18;;;;;;;3.10;1.77;;;;;;;;;;5004940;28;20440;-54
2022/09/02 13:47:45;;;;;;;3.23;2.27;;;;;;;;;;5004551;28;20456;-54
2022/09/02 13:50:15;;;;;;;3.23;2.10;;;;;;;;;;5011164;28;20432;-55
2022/09/02 13:52:41;;;;;;;2.27;2.03;;;;;;;;;;5019796;28;20443;-54
2022/09/02 13:55:08;;;;;;;2.53;2.00;;;;;;;;;;5018737;28;20434;-55
2022/09/02 13:57:34;;;;;;;2.57;2.07;;;;;;;;;;5009895;28;20182;-54
2022/09/02 14:00:00;;;;;;;1.90;1.70;;;;;;;;;;4996695;28;20440;-54
2022/09/02 14:02:29;;;;;;;2.20;2.00;;;;;;;;;;5010149;28;20480;-54
2022/09/02 14:04:57;;;;;;;3.30;2.40;;;;;;;;;;5011599;28;20268;-54
2022/09/02 14:07:28;;;;;;;8.40;2.43;;;;;;;;;;4993179;28;20431;-54
2022/09/02 14:09:56;;;;;;;2.40;1.93;;;;;;;;;;5010667;28;20431;-54
2022/09/02 14:12:22;;;;;;;2.70;2.33;;;;;;;;;;4965263;28;20452;-54
2022/09/02 14:14:48;;;;;;;2.50;2.13;;;;;;;;;;4992430;28;20451;-54
2022/09/02 14:17:34;;;;;;;2.80;2.10;;;;;;;;;;5017593;28;20666;-53
2022/09/02 14:20:19;;;;;;;4.30;2.50;;;;;;;;;;5001793;28;20433;-54
2022/09/02 14:22:52;;;;;;;2.73;2.43;;;;;;;;;;4986623;28;20465;-53
2022/09/02 14:25:18;;;;;;;3.00;2.10;;;;;;;;;;5020576;28;20434;-55
2022/09/02 14:27:51;;;;;;;2.67;1.97;;;;;;;;;;4994898;28;20448;-53
2022/09/02 14:30:30;;;;;;;2.43;2.23;;;;;;;;;;5034060;28;20466;-54
2022/09/02 14:33:15;;;;;;;5.33;2.07;;;;;;;;;;5000597;28;20445;-55
2022/09/02 14:35:41;;;;;;;7.20;2.17;;;;;;;;;;5019068;28;20510;-54
2022/09/02 14:38:07;;;;;;;3.43;2.20;;;;;;;;;;4986058;28;20451;-54
2022/09/02 14:40:33;;;;;;;2.40;2.10;;;;;;;;;;5017807;28;20243;-54
2022/09/02 14:42:59;;;;;;;3.00;1.97;;;;;;;;;;4968255;28;20452;-54
2022/09/02 14:45:26;;;;;;;4.40;2.10;;;;;;;;;;5007988;28;20200;-53
2022/09/02 14:47:52;;;;;;;2.23;2.00;;;;;;;;;;5008327;28;20979;-55
2022/09/02 14:50:18;;;;;;;4.30;2.37;;;;;;;;;;5014856;28;20442;-54
2022/09/02 14:52:45;;;;;;;2.53;1.93;;;;;;;;;;4993456;28;21125;-54
2022/09/02 14:55:31;;;;;;;3.40;2.27;;;;;;;;;;5015865;28;20439;-54
2022/09/02 14:58:04;;;;;;;2.90;1.93;;;;;;;;;;5000215;28;20519;-54